createdAt,value
2022-09-15T00:00:11.872Z,98420.91
2022-09-15T00:02:38.918Z,98420.47
2022-09-15T00:05:06.075Z,98428.16
2022-09-15T00:07:32.942Z,98418.47
2022-09-15T00:09:59.858Z,98413.63
2022-09-15T00:12:27.972Z,98415.00
2022-09-15T00:14:54.969Z,98413.22
2022-09-15T00:17:21.961Z,98416.84
2022-09-15T00:19:48.891Z,98411.59
2022-09-15T00:22:16.183Z,98416.84
2022-09-15T00:24:43.127Z,98412.19
2022-09-15T00:27:10.024Z,98411.59
2022-09-15T00:29:36.980Z,98409.94
2022-09-15T00:32:04.031Z,98409.16
2022-09-15T00:34:30.924Z,98412.38
2022-09-15T00:36:57.800Z,98413.00
2022-09-15T00:39:24.759Z,98406.94
2022-09-15T00:41:51.807Z,98373.97
2022-09-15T00:44:18.632Z,98409.16
2022-09-15T00:47:09.335Z,98410.97
2022-09-15T00:49:39.262Z,98401.47
2022-09-15T00:52:08.046Z,98409.94
2022-09-15T00:54:57.920Z,98392.97
2022-09-15T00:57:35.985Z,98404.69
2022-09-15T01:02:54.352Z,98402.69
2022-09-15T01:05:25.528Z,98400.66
2022-09-15T01:08:14.291Z,98397.44
2022-09-15T01:10:41.439Z,98395.81
2022-09-15T01:13:12.805Z,98406.91
2022-09-15T01:19:19.556Z,98403.09
2022-09-15T01:21:53.663Z,98393.38
2022-09-15T01:24:35.008Z,98392.97
2022-09-15T01:27:40.500Z,98385.28
2022-09-15T01:30:14.461Z,98395.19
2022-09-15T01:33:15.038Z,98395.41
2022-09-15T01:35:48.258Z,98392.97
2022-09-15T01:38:36.716Z,98394.59
2022-09-15T01:41:19.450Z,98395.00
2022-09-15T01:44:11.923Z,98392.97
2022-09-15T01:46:50.148Z,98391.69
2022-09-15T01:49:22.451Z,98397.38
2022-09-15T01:51:52.481Z,98395.13
2022-09-15T01:54:33.964Z,98392.06
2022-09-15T01:57:03.231Z,98400.94
2022-09-15T01:59:31.457Z,98394.09
2022-09-15T02:02:05.473Z,98397.13
2022-09-15T02:04:36.806Z,98390.81
2022-09-15T02:07:11.798Z,98385.16
2022-09-15T02:09:47.055Z,98392.63
2022-09-15T02:12:34.058Z,98391.00
2022-09-15T02:15:08.020Z,98391.22
2022-09-15T02:17:39.089Z,98391.00
2022-09-15T02:20:33.457Z,98396.06
2022-09-15T02:23:08.587Z,98396.72
2022-09-15T02:25:45.076Z,98395.88
2022-09-15T02:28:13.972Z,98398.13
2022-09-15T02:30:45.024Z,98391.66
2022-09-15T02:33:19.937Z,98386.59
2022-09-15T02:35:47.564Z,98391.69
2022-09-15T02:38:15.281Z,98397.53
2022-09-15T02:40:43.918Z,98375.72
2022-09-15T02:43:20.010Z,98396.53
2022-09-15T02:45:47.025Z,98401.19
2022-09-15T02:48:13.973Z,98401.00
2022-09-15T02:50:41.436Z,98396.72
2022-09-15T02:53:09.141Z,98399.34
2022-09-15T02:55:36.237Z,98408.03
2022-09-15T02:58:03.214Z,98405.22
2022-09-15T03:00:31.261Z,98401.38
2022-09-15T03:02:58.659Z,98403.03
2022-09-15T03:05:30.265Z,98400.19
2022-09-15T03:07:57.437Z,98401.41
2022-09-15T03:10:25.954Z,98396.13
2022-09-15T03:12:54.522Z,98406.25
2022-09-15T03:15:24.544Z,98399.75
2022-09-15T03:17:52.422Z,98400.41
2022-09-15T03:20:22.744Z,98401.00
2022-09-15T03:22:50.093Z,98402.81
2022-09-15T03:25:17.828Z,98408.69
2022-09-15T03:27:45.030Z,98402.44
2022-09-15T03:30:12.844Z,98404.03
2022-09-15T03:32:40.338Z,98404.81
2022-09-15T03:35:07.977Z,98405.84
2022-09-15T03:37:35.281Z,98398.16
2022-09-15T03:40:03.895Z,98403.22
2022-09-15T03:42:31.109Z,98403.22
2022-09-15T03:44:58.074Z,98401.78
2022-09-15T03:47:25.381Z,98396.94
2022-09-15T03:49:52.298Z,98401.38
2022-09-15T03:52:19.175Z,98398.13
2022-09-15T03:54:48.046Z,98391.25
2022-09-15T03:57:15.000Z,98393.69
2022-09-15T03:59:41.896Z,98395.94
2022-09-15T04:02:08.822Z,98391.47
2022-09-15T04:04:36.080Z,98396.94
2022-09-15T04:07:02.980Z,98404.00
2022-09-15T04:09:30.662Z,98407.88
2022-09-15T04:11:57.576Z,98407.44
2022-09-15T04:14:24.580Z,98408.28
2022-09-15T04:16:51.567Z,98408.69
2022-09-15T04:19:18.476Z,98399.81
2022-09-15T04:21:47.471Z,98411.31
2022-09-15T04:24:14.480Z,98402.19
2022-09-15T04:26:41.806Z,98415.97
2022-09-15T04:29:14.397Z,98411.09
2022-09-15T04:31:41.893Z,98400.19
2022-09-15T04:34:09.494Z,98404.41
2022-09-15T04:36:36.588Z,98408.28
2022-09-15T04:39:04.115Z,98406.00
2022-09-15T04:41:31.002Z,98407.44
2022-09-15T04:43:58.688Z,98406.59
2022-09-15T04:46:26.141Z,98405.78
2022-09-15T04:48:53.127Z,98406.16
2022-09-15T04:51:22.173Z,98408.81
2022-09-15T04:53:50.258Z,98407.41
2022-09-15T04:56:25.679Z,98401.66
2022-09-15T04:58:58.253Z,98399.06
2022-09-15T05:01:30.918Z,98404.50
2022-09-15T05:03:58.108Z,98405.72
2022-09-15T05:06:27.775Z,98403.72
2022-09-15T05:08:56.840Z,98409.09
2022-09-15T05:11:24.679Z,98417.25
2022-09-15T05:13:51.881Z,98421.06
2022-09-15T05:16:27.278Z,98412.63
2022-09-15T05:18:56.932Z,98414.59
2022-09-15T05:21:24.372Z,98408.97
2022-09-15T05:23:52.134Z,98409.38
2022-09-15T05:26:22.668Z,98409.00
2022-09-15T05:28:50.285Z,98407.81
2022-09-15T05:31:23.598Z,98408.00
2022-09-15T05:33:52.795Z,98408.63
2022-09-15T05:36:23.818Z,98408.59
2022-09-15T05:38:52.398Z,98407.59
2022-09-15T05:41:20.926Z,98404.53
2022-09-15T05:43:48.953Z,98410.25
2022-09-15T05:46:18.106Z,98413.06
2022-09-15T05:48:45.318Z,98408.22
2022-09-15T05:51:13.093Z,98406.97
2022-09-15T05:53:40.241Z,98409.38
2022-09-15T05:56:12.151Z,98414.47
2022-09-15T05:58:44.605Z,98415.09
2022-09-15T06:01:17.811Z,98420.56
2022-09-15T06:03:45.125Z,98418.34
2022-09-15T06:06:12.353Z,98430.88
2022-09-15T06:08:44.254Z,98427.66
2022-09-15T06:11:13.948Z,98422.78
2022-09-15T06:13:41.417Z,98418.72
2022-09-15T06:16:17.214Z,98428.44
2022-09-15T06:18:44.266Z,98426.22
2022-09-15T06:21:17.058Z,98428.03
2022-09-15T06:23:48.586Z,98427.78
2022-09-15T06:26:19.141Z,98428.81
2022-09-15T06:28:55.008Z,98434.84
2022-09-15T06:31:22.953Z,98428.94
2022-09-15T06:33:53.094Z,98434.44
2022-09-15T06:36:22.613Z,98431.81
2022-09-15T06:38:50.047Z,98433.41
2022-09-15T06:41:17.095Z,98436.44
2022-09-15T06:43:45.193Z,98441.16
2022-09-15T06:46:15.291Z,98442.47
2022-09-15T06:48:46.335Z,98446.94
2022-09-15T06:51:17.328Z,98448.19
2022-09-15T06:53:45.055Z,98450.22
2022-09-15T06:56:16.835Z,98450.22
2022-09-15T06:58:46.020Z,98446.16
2022-09-15T07:01:18.758Z,98451.22
2022-09-15T07:03:45.767Z,98456.63
2022-09-15T07:06:13.274Z,98460.31
2022-09-15T07:08:40.982Z,98449.81
2022-09-15T07:11:09.698Z,98466.00
2022-09-15T07:13:37.521Z,98461.72
2022-09-15T07:16:06.866Z,98464.81
2022-09-15T07:18:37.584Z,98467.25
2022-09-15T07:21:09.575Z,98463.22
2022-09-15T07:23:36.749Z,98468.50
2022-09-15T07:26:06.920Z,98458.00
2022-09-15T07:28:33.971Z,98467.31
2022-09-15T07:31:01.146Z,98461.66
2022-09-15T07:33:28.884Z,98463.66
2022-09-15T07:35:55.924Z,98464.50
2022-09-15T07:38:22.813Z,98473.84
2022-09-15T07:40:49.962Z,98466.97
2022-09-15T07:43:16.876Z,98473.06
2022-09-15T07:45:43.836Z,98477.91
2022-09-15T07:48:11.023Z,98475.09
2022-09-15T07:50:38.282Z,98469.59
2022-09-15T07:53:05.212Z,98472.06
2022-09-15T07:55:33.002Z,98479.31
2022-09-15T07:58:01.184Z,98486.44
2022-09-15T08:00:28.448Z,98479.75
2022-09-15T08:02:56.465Z,98478.13
2022-09-15T08:05:28.322Z,98478.34
2022-09-15T08:07:56.392Z,98482.78
2022-09-15T08:10:25.341Z,98479.34
2022-09-15T08:12:53.063Z,98480.34
2022-09-15T08:15:20.476Z,98486.22
2022-09-15T08:17:47.525Z,98492.91
2022-09-15T08:20:14.473Z,98488.25
2022-09-15T08:22:42.450Z,98498.97
2022-09-15T08:25:09.838Z,98484.41
2022-09-15T08:27:38.105Z,98488.44
2022-09-15T08:30:06.257Z,98481.56
2022-09-15T08:32:33.651Z,98486.00
2022-09-15T08:35:00.561Z,98490.88
2022-09-15T08:37:27.521Z,98484.78
2022-09-15T08:39:54.400Z,98485.59
2022-09-15T08:42:24.196Z,98484.19
2022-09-15T08:44:59.759Z,98492.88
2022-09-15T08:47:36.875Z,98490.47
2022-09-15T08:50:18.795Z,98490.03
2022-09-15T08:52:52.546Z,98492.09
2022-09-15T08:55:26.888Z,98490.69
2022-09-15T08:57:54.554Z,98488.44
2022-09-15T09:00:21.678Z,98494.09
2022-09-15T09:03:10.264Z,98503.00
2022-09-15T09:05:55.436Z,98493.72
2022-09-15T09:08:34.330Z,98501.41
2022-09-15T09:11:16.473Z,98509.91
2022-09-15T09:14:13.616Z,98504.41
2022-09-15T09:17:08.098Z,98513.75
2022-09-15T09:19:53.397Z,98504.22
2022-09-15T09:22:28.706Z,98509.28
2022-09-15T09:24:58.673Z,98512.13
2022-09-15T09:27:29.975Z,98518.78
2022-09-15T09:30:19.315Z,98522.44
2022-09-15T09:33:07.484Z,98517.56
2022-09-15T09:35:46.317Z,98498.94
2022-09-15T09:38:22.769Z,98515.13
2022-09-15T09:40:49.886Z,98509.06
2022-09-15T09:43:17.115Z,98509.59
2022-09-15T09:45:45.940Z,98514.28
2022-09-15T09:48:20.620Z,98505.53
2022-09-15T09:50:49.747Z,98516.06
2022-09-15T09:53:26.387Z,98513.19
2022-09-15T09:56:15.442Z,98516.06
2022-09-15T09:58:42.924Z,98516.69
2022-09-15T10:01:15.243Z,98523.56
2022-09-15T10:03:43.910Z,98522.53
2022-09-15T10:06:22.364Z,98515.88
2022-09-15T10:08:58.777Z,98525.19
2022-09-15T10:11:40.935Z,98522.53
2022-09-15T10:14:19.120Z,98529.69
2022-09-15T10:17:04.721Z,98521.97
2022-09-15T10:19:35.435Z,98529.88
2022-09-15T10:22:03.432Z,98515.69
2022-09-15T10:24:39.938Z,98535.94
2022-09-15T10:27:29.849Z,98532.31
2022-09-15T10:30:16.637Z,98535.53
2022-09-15T10:32:43.627Z,98541.41
2022-09-15T10:35:11.593Z,98533.97
2022-09-15T10:38:17.238Z,98529.25
2022-09-15T10:40:52.250Z,98537.72
2022-09-15T10:43:28.213Z,98529.97
2022-09-15T10:46:26.606Z,98537.13
2022-09-15T10:49:05.507Z,98543.81
2022-09-15T10:51:51.084Z,98544.38
2022-09-15T10:54:17.930Z,98543.38
2022-09-15T10:56:55.271Z,98549.63
2022-09-15T10:59:36.014Z,98549.22
2022-09-15T11:02:18.291Z,98553.06
2022-09-15T11:05:11.743Z,98558.75
2022-09-15T11:07:55.371Z,98557.00
2022-09-15T11:10:47.197Z,98552.56
2022-09-15T11:13:39.968Z,98565.34
2022-09-15T11:16:09.964Z,98567.34
2022-09-15T11:18:58.541Z,98565.75
2022-09-15T11:21:46.607Z,98564.75
2022-09-15T11:24:48.069Z,98564.53
2022-09-15T11:27:22.822Z,98568.56
2022-09-15T11:30:11.383Z,98570.81
2022-09-15T11:32:46.438Z,98575.06
2022-09-15T11:35:45.257Z,98575.88
2022-09-15T11:38:34.518Z,98580.75
2022-09-15T11:41:26.521Z,98582.53
2022-09-15T11:44:30.613Z,98578.50
2022-09-15T11:47:24.856Z,98585.59
2022-09-15T11:50:08.180Z,98578.09
2022-09-15T11:52:55.206Z,98582.75
2022-09-15T11:55:40.757Z,98582.13
2022-09-15T11:58:45.245Z,98576.44
2022-09-15T12:01:12.171Z,98578.41
2022-09-15T12:03:54.420Z,98576.97
2022-09-15T12:06:47.902Z,98560.72
2022-09-15T12:09:17.986Z,98557.41
2022-09-15T12:11:58.512Z,98554.78
2022-09-15T12:14:41.428Z,98566.88
2022-09-15T12:17:33.599Z,98560.31
2022-09-15T12:20:16.061Z,98559.63
2022-09-15T12:22:47.122Z,98567.00
2022-09-15T12:25:24.109Z,98560.59
2022-09-15T12:28:22.445Z,98558.16
2022-09-15T12:31:10.922Z,98557.94
2022-09-15T12:33:53.778Z,98556.16
2022-09-15T12:36:31.486Z,98559.78
2022-09-15T12:38:59.904Z,98551.00
2022-09-15T12:41:27.619Z,98555.28
2022-09-15T12:44:03.836Z,98552.78
2022-09-15T12:46:31.111Z,98560.09
2022-09-15T12:49:03.226Z,98564.38
2022-09-15T12:51:30.877Z,98557.66
2022-09-15T12:54:07.509Z,98556.78
2022-09-15T12:56:35.317Z,98563.28
2022-09-15T12:59:07.730Z,98549.44
2022-09-15T13:01:47.800Z,98556.16
2022-09-15T13:04:41.514Z,98558.50
2022-09-15T13:07:18.609Z,98559.44
2022-09-15T13:10:04.898Z,98564.28
2022-09-15T13:12:38.261Z,98557.50
2022-09-15T13:15:13.261Z,98565.59
2022-09-15T13:17:44.515Z,98561.44
2022-09-15T13:20:18.105Z,98568.84
2022-09-15T13:22:51.048Z,98566.44
2022-09-15T13:25:26.294Z,98577.56
2022-09-15T13:27:54.822Z,98582.34
2022-09-15T13:30:22.182Z,98582.31
2022-09-15T13:33:06.749Z,98584.03
2022-09-15T13:35:42.720Z,98584.22
2022-09-15T13:38:22.676Z,98586.06
2022-09-15T13:41:19.370Z,98596.75
2022-09-15T13:43:52.051Z,98592.41
2022-09-15T13:46:28.977Z,98591.63
2022-09-15T13:49:33.340Z,98591.22
2022-09-15T13:52:14.264Z,98604.81
2022-09-15T13:55:17.323Z,98594.41
2022-09-15T14:00:45.150Z,98594.69
2022-09-15T14:03:17.469Z,98587.75
2022-09-15T14:05:45.600Z,98595.88
2022-09-15T14:08:29.036Z,98595.16
2022-09-15T14:11:01.245Z,98597.50
2022-09-15T14:13:30.103Z,98605.53
2022-09-15T14:15:58.744Z,98605.13
2022-09-15T14:18:25.953Z,98612.56
2022-09-15T14:21:04.713Z,98613.75
2022-09-15T14:23:32.841Z,98606.41
2022-09-15T14:26:02.008Z,98606.00
2022-09-15T14:28:32.478Z,98612.13
2022-09-15T14:31:01.284Z,98607.94
2022-09-15T14:33:40.205Z,98617.47
2022-09-15T14:36:34.529Z,98607.97
2022-09-15T14:39:17.998Z,98609.19
2022-09-15T14:41:45.577Z,98612.00
2022-09-15T14:47:23.197Z,98609.47
2022-09-15T14:50:11.545Z,98611.28
2022-09-15T14:52:41.573Z,98620.00
2022-09-15T14:55:15.630Z,98612.50
2022-09-15T14:57:51.679Z,98621.22
2022-09-15T15:00:23.680Z,98623.66
2022-09-15T15:02:56.917Z,98624.69
2022-09-15T15:05:40.794Z,98619.19
2022-09-15T15:08:13.045Z,98619.00
2022-09-15T15:10:41.357Z,98615.97
2022-09-15T15:13:16.317Z,98629.94
2022-09-15T15:15:44.788Z,98622.03
2022-09-15T15:18:47.463Z,98624.06
2022-09-15T15:21:37.321Z,98615.34
2022-09-15T15:24:13.174Z,98619.59
2022-09-15T15:26:42.479Z,98622.81
2022-09-15T15:29:39.648Z,98616.13
2022-09-15T15:32:12.094Z,98623.78
2022-09-15T15:34:39.195Z,98616.66
2022-09-15T15:37:29.115Z,98618.25
2022-09-15T15:39:58.871Z,98613.16
2022-09-15T15:42:26.771Z,98618.94
2022-09-15T15:45:09.915Z,98615.22
2022-09-15T15:47:37.223Z,98621.22
2022-09-15T15:50:20.942Z,98614.50
2022-09-15T15:52:49.492Z,98610.19
2022-09-15T15:55:20.044Z,98609.50
2022-09-15T15:57:50.308Z,98618.31
2022-09-15T16:00:26.561Z,98621.25
2022-09-15T16:02:54.204Z,98614.91
2022-09-15T16:05:25.359Z,98615.66
2022-09-15T16:07:53.713Z,98610.91
2022-09-15T16:10:24.600Z,98610.63
2022-09-15T16:12:52.141Z,98607.31
2022-09-15T16:15:21.399Z,98602.16
2022-09-15T16:17:49.105Z,98604.91
2022-09-15T16:20:17.002Z,98609.06
2022-09-15T16:22:44.244Z,98609.19
2022-09-15T16:25:28.847Z,98617.97
2022-09-15T16:27:55.940Z,98618.72
2022-09-15T16:30:23.061Z,98616.19
2022-09-15T16:32:50.012Z,98613.50
2022-09-15T16:35:51.203Z,98622.72
2022-09-15T16:38:19.846Z,98628.84
2022-09-15T16:40:47.993Z,98628.78
2022-09-15T16:43:21.673Z,98624.88
2022-09-15T16:45:49.830Z,98628.09
2022-09-15T16:48:17.377Z,98626.19
2022-09-15T16:51:01.719Z,98627.53
2022-09-15T16:53:32.809Z,98624.47
2022-09-15T16:55:59.867Z,98614.53
2022-09-15T16:58:26.892Z,98627.00
2022-09-15T17:00:53.891Z,98631.56
2022-09-15T17:03:24.673Z,98625.09
2022-09-15T17:05:57.550Z,98628.69
2022-09-15T17:08:31.333Z,98630.88
2022-09-15T17:11:00.504Z,98631.03
2022-09-15T17:13:30.691Z,98626.97
2022-09-15T17:15:58.852Z,98632.56
2022-09-15T17:18:26.992Z,98628.88
2022-09-15T17:20:54.363Z,98636.53
2022-09-15T17:23:25.464Z,98637.69
2022-09-15T17:25:57.498Z,98634.44
2022-09-15T17:28:27.247Z,98639.88
2022-09-15T17:30:59.038Z,98633.16
2022-09-15T17:33:27.631Z,98638.75
2022-09-15T17:35:55.472Z,98637.47
2022-09-15T17:38:22.646Z,98636.03
2022-09-15T17:40:50.638Z,98632.78
2022-09-15T17:43:19.909Z,98632.63
2022-09-15T17:45:48.138Z,98627.75
2022-09-15T17:48:16.015Z,98631.50
2022-09-15T17:50:43.984Z,98630.06
2022-09-15T17:53:22.862Z,98628.63
2022-09-15T17:55:51.050Z,98627.97
2022-09-15T17:58:18.464Z,98629.50
2022-09-15T18:00:46.733Z,98626.22
2022-09-15T18:03:33.324Z,98628.19
2022-09-15T18:06:04.196Z,98618.91
2022-09-15T18:08:32.985Z,98622.03
2022-09-15T18:11:01.124Z,98622.03
2022-09-15T18:13:31.022Z,98611.44
2022-09-15T18:16:03.027Z,98619.94
2022-09-15T18:18:30.513Z,98622.06
2022-09-15T18:20:58.320Z,98622.47
2022-09-15T18:23:28.529Z,98616.56
2022-09-15T18:25:55.667Z,98618.56
2022-09-15T18:28:22.750Z,98620.53
2022-09-15T18:30:50.429Z,98622.50
2022-09-15T18:33:22.977Z,98620.06
2022-09-15T18:35:53.046Z,98616.81
2022-09-15T18:38:20.800Z,98620.75
2022-09-15T18:40:57.151Z,98623.19
2022-09-15T18:43:27.157Z,98618.31
2022-09-15T18:46:01.380Z,98626.16
2022-09-15T18:48:28.954Z,98619.66
2022-09-15T18:50:56.396Z,98611.81
2022-09-15T18:53:23.520Z,98615.22
2022-09-15T18:55:50.620Z,98607.72
2022-09-15T18:58:19.563Z,98609.53
2022-09-15T19:00:46.862Z,98607.28
2022-09-15T19:03:14.357Z,98608.91
2022-09-15T19:05:41.577Z,98613.47
2022-09-15T19:08:09.322Z,98618.06
2022-09-15T19:10:38.438Z,98616.44
2022-09-15T19:13:05.454Z,98613.81
2022-09-15T19:15:34.577Z,98611.56
2022-09-15T19:18:02.191Z,98609.94
2022-09-15T19:20:29.446Z,98612.56
2022-09-15T19:22:57.369Z,98607.50
2022-09-15T19:25:24.297Z,98606.66
2022-09-15T19:27:51.251Z,98606.38
2022-09-15T19:30:18.174Z,98605.22
2022-09-15T19:32:45.071Z,98608.66
2022-09-15T19:35:12.073Z,98608.66
2022-09-15T19:37:41.326Z,98596.09
2022-09-15T19:40:11.768Z,98609.00
2022-09-15T19:42:40.420Z,98600.34
2022-09-15T19:45:09.073Z,98595.31
2022-09-15T19:47:36.688Z,98602.16
2022-09-15T19:50:06.122Z,98590.41
2022-09-15T19:52:33.240Z,98600.34
2022-09-15T19:55:00.295Z,98593.66
2022-09-15T19:57:27.282Z,98600.34
2022-09-15T19:59:54.152Z,98597.75
2022-09-15T20:02:21.104Z,98604.59
2022-09-15T20:05:01.806Z,98603.78
2022-09-15T20:07:32.139Z,98593.03
2022-09-15T20:09:59.082Z,98600.53
2022-09-15T20:12:26.835Z,98599.22
2022-09-15T20:14:54.549Z,98611.78
2022-09-15T20:17:21.460Z,98609.84
2022-09-15T20:19:48.528Z,98608.66
2022-09-15T20:22:15.476Z,98608.47
2022-09-15T20:24:42.411Z,98605.06
2022-09-15T20:27:09.513Z,98611.91
2022-09-15T20:29:36.383Z,98604.06
2022-09-15T20:34:52.063Z,98597.41
2022-09-15T20:37:19.180Z,98595.59
2022-09-15T20:39:49.277Z,98596.56
2022-09-15T20:42:16.215Z,98599.19
2022-09-15T20:44:43.118Z,98596.56
2022-09-15T20:47:09.990Z,98601.78
2022-09-15T20:49:36.953Z,98585.31
2022-09-15T20:52:03.917Z,98589.72
2022-09-15T20:54:30.844Z,98589.72
2022-09-15T20:56:57.693Z,98594.97
2022-09-15T20:59:25.721Z,98593.31
2022-09-15T21:01:52.624Z,98592.97
2022-09-15T21:04:20.101Z,98587.41
2022-09-15T21:06:47.121Z,98593.59
2022-09-15T21:09:14.157Z,98594.28
2022-09-15T21:11:43.349Z,98589.38
2022-09-15T21:14:14.258Z,98589.38
2022-09-15T21:16:41.970Z,98591.16
2022-09-15T21:19:09.638Z,98583.50
2022-09-15T21:21:36.610Z,98588.09
2022-09-15T21:24:06.656Z,98583.88
2022-09-15T21:27:01.057Z,98584.84
2022-09-15T21:29:29.100Z,98574.84
2022-09-15T21:31:56.186Z,98573.72
2022-09-15T21:34:23.976Z,98564.94
2022-09-15T21:36:51.942Z,98568.84
2022-09-15T21:39:19.072Z,98582.00
2022-09-15T21:41:45.969Z,98573.03
2022-09-15T21:44:12.972Z,98579.50
2022-09-15T21:46:39.917Z,98578.19
2022-09-15T21:49:06.814Z,98574.78
2022-09-15T21:51:33.844Z,98561.88
2022-09-15T21:54:00.855Z,98569.06
2022-09-15T21:56:29.613Z,98563.81
2022-09-15T21:58:57.067Z,98577.91
2022-09-15T22:01:27.974Z,98566.78
2022-09-15T22:04:03.531Z,98572.84
2022-09-15T22:06:33.628Z,98566.16
2022-09-15T22:09:06.054Z,98569.75
2022-09-15T22:11:33.374Z,98570.09
2022-09-15T22:14:03.138Z,98560.13
2022-09-15T22:16:30.429Z,98565.34
2022-09-15T22:18:57.651Z,98556.84
2022-09-15T22:21:27.186Z,98558.84
2022-09-15T22:23:56.450Z,98551.16
2022-09-15T22:26:28.608Z,98550.38
2022-09-15T22:28:56.471Z,98551.53
2022-09-15T22:31:24.995Z,98550.88
2022-09-15T22:33:52.812Z,98557.09
2022-09-15T22:36:30.669Z,98555.47
2022-09-15T22:39:05.847Z,98551.22
2022-09-15T22:41:35.874Z,98550.59
2022-09-15T22:44:04.062Z,98548.97
2022-09-15T22:46:31.482Z,98547.31
2022-09-15T22:48:58.639Z,98550.13
2022-09-15T22:51:25.559Z,98548.50
2022-09-15T22:53:54.718Z,98552.91
2022-09-15T22:56:21.890Z,98552.09
2022-09-15T22:58:49.814Z,98548.84
2022-09-15T23:01:22.600Z,98542.78
2022-09-15T23:03:51.681Z,98551.63
2022-09-15T23:06:19.431Z,98553.59
2022-09-15T23:08:56.810Z,98552.78
2022-09-15T23:11:24.817Z,98547.91
2022-09-15T23:13:53.358Z,98553.97
2022-09-15T23:16:20.719Z,98549.88
2022-09-15T23:18:48.389Z,98548.25
2022-09-15T23:21:15.428Z,98546.63
2022-09-15T23:23:44.397Z,98535.53
2022-09-15T23:26:12.888Z,98537.34
2022-09-15T23:28:40.207Z,98534.91
2022-09-15T23:31:08.485Z,98531.00
2022-09-15T23:33:35.520Z,98542.09
2022-09-15T23:36:04.916Z,98545.69
2022-09-15T23:38:35.750Z,98535.56
2022-09-15T23:41:02.779Z,98532.16
2022-09-15T23:43:29.963Z,98527.91
2022-09-15T23:45:56.805Z,98528.88
2022-09-15T23:48:23.845Z,98528.25
2022-09-15T23:50:50.803Z,98523.22
2022-09-15T23:53:18.708Z,98534.47
2022-09-15T23:55:46.888Z,98526.28
2022-09-15T23:58:13.850Z,98527.22
